createdAt,value
2022-10-10T00:01:08.647Z,0.00
2022-10-10T00:02:08.677Z,0.00
2022-10-10T00:04:01.802Z,0.00
2022-10-10T00:05:01.828Z,0.00
2022-10-10T00:07:05.953Z,0.00
2022-10-10T00:08:05.936Z,0.00
2022-10-10T00:10:08.070Z,0.00
2022-10-10T00:11:08.068Z,0.00
2022-10-10T00:13:01.231Z,0.00
2022-10-10T00:14:01.255Z,0.00
2022-10-10T00:15:53.330Z,0.00
2022-10-10T00:16:53.312Z,0.00
2022-10-10T00:18:55.752Z,0.00
2022-10-10T00:19:55.769Z,0.00
2022-10-10T00:21:48.934Z,0.00
2022-10-10T00:22:49.294Z,0.00
2022-10-10T00:24:42.122Z,0.00
2022-10-10T00:25:42.146Z,0.00
2022-10-10T00:27:46.235Z,0.00
2022-10-10T00:28:46.274Z,0.00
2022-10-10T00:30:39.422Z,0.00
2022-10-10T00:31:39.453Z,0.00
2022-10-10T00:33:32.626Z,0.00
2022-10-10T00:34:32.650Z,0.00
2022-10-10T00:36:25.643Z,0.00
2022-10-10T00:37:25.681Z,0.00
2022-10-10T00:39:29.741Z,0.00
2022-10-10T00:40:29.765Z,0.00
2022-10-10T00:42:33.847Z,0.00
2022-10-10T00:43:33.875Z,0.00
2022-10-10T00:45:27.068Z,0.00
2022-10-10T00:46:27.091Z,0.00
2022-10-10T00:48:20.257Z,0.00
2022-10-10T00:49:20.286Z,0.00
2022-10-10T00:51:13.487Z,0.00
2022-10-10T00:52:13.478Z,0.00
2022-10-10T00:54:06.686Z,0.00
2022-10-10T00:55:06.678Z,0.00
2022-10-10T00:57:10.748Z,0.00
2022-10-10T00:58:10.772Z,0.00
2022-10-10T01:00:14.897Z,0.00
2022-10-10T01:01:14.947Z,0.00
2022-10-10T01:03:08.075Z,0.00
2022-10-10T01:04:08.100Z,0.00
2022-10-10T01:06:01.077Z,0.00
2022-10-10T01:07:01.103Z,0.00
2022-10-10T01:08:54.298Z,0.00
2022-10-10T01:09:54.294Z,0.00
2022-10-10T01:11:47.450Z,0.00
2022-10-10T01:12:47.646Z,0.00
2022-10-10T01:14:40.684Z,0.00
2022-10-10T01:15:40.671Z,0.00
2022-10-10T01:17:33.852Z,0.00
2022-10-10T01:18:33.864Z,0.00
2022-10-10T01:20:27.146Z,0.00
2022-10-10T01:21:27.052Z,0.00
2022-10-10T01:23:20.218Z,0.00
2022-10-10T01:24:20.242Z,0.00
2022-10-10T01:26:13.233Z,0.00
2022-10-10T01:27:13.256Z,0.00
2022-10-10T01:29:06.457Z,0.00
2022-10-10T01:30:06.456Z,0.00
2022-10-10T01:32:10.515Z,0.00
2022-10-10T01:33:10.538Z,0.00
2022-10-10T01:35:03.709Z,0.00
2022-10-10T01:36:03.730Z,0.00
2022-10-10T01:38:07.798Z,0.00
2022-10-10T01:39:07.823Z,0.00
2022-10-10T01:41:01.021Z,0.00
2022-10-10T01:42:01.012Z,0.00
2022-10-10T01:43:54.181Z,0.00
2022-10-10T01:44:54.199Z,0.00
2022-10-10T01:46:47.401Z,0.00
2022-10-10T01:47:47.390Z,0.00
2022-10-10T01:49:40.565Z,0.00
2022-10-10T01:50:40.592Z,0.00
2022-10-10T01:52:44.682Z,0.00
2022-10-10T01:53:44.709Z,0.00
2022-10-10T01:55:37.868Z,0.00
2022-10-10T01:56:37.896Z,0.00
2022-10-10T01:58:31.095Z,0.00
2022-10-10T01:59:31.084Z,0.00
2022-10-10T02:01:35.180Z,0.00
2022-10-10T02:02:35.224Z,0.00
2022-10-10T02:04:39.342Z,0.00
2022-10-10T02:05:39.317Z,0.00
2022-10-10T02:07:32.479Z,0.00
2022-10-10T02:08:32.501Z,0.00
2022-10-10T02:10:25.703Z,0.00
2022-10-10T02:11:25.693Z,0.00
2022-10-10T02:13:18.864Z,0.00
2022-10-10T02:14:18.893Z,0.00
2022-10-10T02:16:11.881Z,0.00
2022-10-10T02:17:11.906Z,0.00
2022-10-10T02:19:05.072Z,0.00
2022-10-10T02:20:05.098Z,0.00
2022-10-10T02:22:09.166Z,0.00
2022-10-10T02:23:09.192Z,0.00
2022-10-10T02:25:02.357Z,0.00
2022-10-10T02:26:02.398Z,0.00
2022-10-10T02:27:55.595Z,0.00
2022-10-10T02:28:55.571Z,0.00
2022-10-10T02:30:48.775Z,0.00
2022-10-10T02:31:48.758Z,0.00
2022-10-10T02:33:41.927Z,0.00
2022-10-10T02:34:41.950Z,0.00
2022-10-10T02:36:34.957Z,0.00
2022-10-10T02:37:34.978Z,0.00
2022-10-10T02:39:37.256Z,0.00
2022-10-10T02:40:37.280Z,0.00
2022-10-10T02:42:39.507Z,0.00
2022-10-10T02:43:39.498Z,0.00
2022-10-10T02:45:42.587Z,0.00
2022-10-10T02:46:42.578Z,0.00
2022-10-10T02:48:44.840Z,0.00
2022-10-10T02:49:44.865Z,0.00
2022-10-10T02:50:44.896Z,0.00
2022-10-10T02:51:45.010Z,0.00
2022-10-10T02:52:44.960Z,0.00
2022-10-10T02:53:44.990Z,0.00
2022-10-10T02:54:45.022Z,0.00
2022-10-10T02:55:45.053Z,0.00
2022-10-10T02:56:45.090Z,0.00
2022-10-10T02:57:45.119Z,0.00
2022-10-10T02:58:45.150Z,0.00
2022-10-10T02:59:45.181Z,0.00
2022-10-10T03:00:45.264Z,0.00
2022-10-10T03:01:45.242Z,0.00
2022-10-10T03:02:45.274Z,0.00
2022-10-10T03:03:45.303Z,0.00
2022-10-10T03:04:45.336Z,0.00
2022-10-10T03:05:47.031Z,0.00
2022-10-10T03:06:45.400Z,0.00
2022-10-10T03:07:45.435Z,0.00
2022-10-10T03:08:45.461Z,0.00
2022-10-10T03:09:45.493Z,0.00
2022-10-10T03:10:45.527Z,0.00
2022-10-10T03:11:45.555Z,0.00
2022-10-10T03:12:45.591Z,0.00
2022-10-10T03:13:45.624Z,0.00
2022-10-10T03:14:45.650Z,0.00
2022-10-10T03:15:45.682Z,0.00
2022-10-10T03:16:45.714Z,0.00
2022-10-10T03:17:45.745Z,0.00
2022-10-10T03:18:45.775Z,0.00
2022-10-10T03:19:45.807Z,0.00
2022-10-10T03:20:45.840Z,0.00
2022-10-10T03:21:45.870Z,0.00
2022-10-10T03:22:45.901Z,0.00
2022-10-10T03:23:45.936Z,0.00
2022-10-10T03:24:45.966Z,0.00
2022-10-10T03:25:45.997Z,0.00
2022-10-10T03:26:46.027Z,0.00
2022-10-10T03:27:46.056Z,0.00
2022-10-10T03:28:46.140Z,0.00
2022-10-10T03:29:46.120Z,0.00
2022-10-10T03:30:46.154Z,0.00
2022-10-10T03:31:46.182Z,0.00
2022-10-10T03:32:46.215Z,0.00
2022-10-10T03:33:46.247Z,0.00
2022-10-10T03:34:46.277Z,0.00
2022-10-10T03:35:46.306Z,0.00
2022-10-10T03:36:46.343Z,0.00
2022-10-10T03:37:46.370Z,0.00
2022-10-10T03:38:46.404Z,0.00
2022-10-10T03:39:46.445Z,0.00
2022-10-10T03:40:46.466Z,0.00
2022-10-10T03:41:46.496Z,0.00
2022-10-10T03:42:46.534Z,0.00
2022-10-10T03:43:46.563Z,0.00
2022-10-10T03:44:46.592Z,0.00
2022-10-10T03:45:46.622Z,0.00
2022-10-10T03:46:46.653Z,0.00
2022-10-10T03:47:46.689Z,0.00
2022-10-10T03:48:46.722Z,0.00
2022-10-10T03:49:46.747Z,0.00
2022-10-10T03:50:46.778Z,0.00
2022-10-10T03:51:46.809Z,0.00
2022-10-10T03:52:46.879Z,0.00
2022-10-10T03:53:46.872Z,0.00
2022-10-10T03:54:46.903Z,0.00
2022-10-10T03:55:46.957Z,0.00
2022-10-10T03:56:46.965Z,0.00
2022-10-10T03:57:47.000Z,0.00
2022-10-10T03:58:47.029Z,0.00
2022-10-10T03:59:47.062Z,0.00
2022-10-10T04:00:47.093Z,0.00
2022-10-10T04:01:47.121Z,0.00
2022-10-10T04:02:47.337Z,0.00
2022-10-10T04:03:51.878Z,0.00
2022-10-10T04:04:47.217Z,0.00
2022-10-10T04:05:47.251Z,0.00
2022-10-10T04:06:47.278Z,0.00
2022-10-10T04:07:47.310Z,0.00
2022-10-10T04:08:47.359Z,0.00
2022-10-10T04:09:47.373Z,0.00
2022-10-10T04:10:47.404Z,0.00
2022-10-10T04:11:47.440Z,0.00
2022-10-10T04:12:47.624Z,0.00
2022-10-10T04:13:47.498Z,0.00
2022-10-10T04:14:47.527Z,0.00
2022-10-10T04:15:47.559Z,0.00
2022-10-10T04:16:47.591Z,0.00
2022-10-10T04:17:47.623Z,0.00
2022-10-10T04:18:47.653Z,0.00
2022-10-10T04:19:47.685Z,0.00
2022-10-10T04:20:47.715Z,0.00
2022-10-10T04:21:47.749Z,0.00
2022-10-10T04:22:48.033Z,0.00
2022-10-10T04:23:47.809Z,0.00
2022-10-10T04:24:47.840Z,0.00
2022-10-10T04:25:47.872Z,0.00
2022-10-10T04:26:47.904Z,0.00
2022-10-10T04:27:47.937Z,0.00
2022-10-10T04:28:47.968Z,0.00
2022-10-10T04:29:47.997Z,0.00
2022-10-10T04:30:48.026Z,0.00
2022-10-10T04:31:48.061Z,0.00
2022-10-10T04:32:48.263Z,0.00
2022-10-10T04:33:48.122Z,0.00
2022-10-10T04:34:48.152Z,0.00
2022-10-10T04:35:48.193Z,0.00
2022-10-10T04:36:48.215Z,0.00
2022-10-10T04:37:48.247Z,0.00
2022-10-10T04:38:48.276Z,0.00
2022-10-10T04:39:48.310Z,0.00
2022-10-10T04:40:48.340Z,0.00
2022-10-10T04:41:48.372Z,0.00
2022-10-10T04:42:48.705Z,0.00
2022-10-10T04:43:48.445Z,0.00
2022-10-10T04:44:48.464Z,0.00
2022-10-10T04:45:48.515Z,0.00
2022-10-10T04:46:48.526Z,0.00
2022-10-10T04:47:48.557Z,0.00
2022-10-10T04:48:48.589Z,0.00
2022-10-10T04:49:48.621Z,0.00
2022-10-10T04:50:48.652Z,0.00
2022-10-10T04:51:48.685Z,0.00
2022-10-10T04:52:49.034Z,0.00
2022-10-10T04:53:50.560Z,0.00
2022-10-10T04:54:48.780Z,0.00
2022-10-10T04:55:48.809Z,0.00
2022-10-10T04:56:48.837Z,0.00
2022-10-10T04:57:48.870Z,0.00
2022-10-10T04:58:48.898Z,0.00
2022-10-10T04:59:48.934Z,0.00
2022-10-10T05:00:48.962Z,0.00
2022-10-10T05:01:48.994Z,0.00
2022-10-10T05:02:49.380Z,0.00
2022-10-10T05:03:49.057Z,0.00
2022-10-10T05:04:49.100Z,0.00
2022-10-10T05:05:49.117Z,0.00
2022-10-10T05:06:49.147Z,0.00
2022-10-10T05:07:54.490Z,0.00
2022-10-10T05:08:49.210Z,0.00
2022-10-10T05:09:49.244Z,0.00
2022-10-10T05:10:49.271Z,0.00
2022-10-10T05:11:49.303Z,0.00
2022-10-10T05:12:49.733Z,0.00
2022-10-10T05:13:49.368Z,0.00
2022-10-10T05:14:49.396Z,0.00
2022-10-10T05:15:49.477Z,0.00
2022-10-10T05:16:49.460Z,0.00
2022-10-10T05:17:49.493Z,0.00
2022-10-10T05:18:49.522Z,0.00
2022-10-10T05:19:49.553Z,0.00
2022-10-10T05:20:49.582Z,0.00
2022-10-10T05:21:49.615Z,0.00
2022-10-10T05:22:50.012Z,0.00
2022-10-10T05:23:49.678Z,0.00
2022-10-10T05:24:49.712Z,0.00
2022-10-10T05:25:49.738Z,0.00
2022-10-10T05:26:49.769Z,0.00
2022-10-10T05:27:49.799Z,0.00
2022-10-10T05:28:49.830Z,0.00
2022-10-10T05:29:49.863Z,0.00
2022-10-10T05:30:49.892Z,0.00
2022-10-10T05:31:49.926Z,0.00
2022-10-10T05:32:50.246Z,0.00
2022-10-10T05:33:49.990Z,0.00
2022-10-10T05:34:50.018Z,0.00
2022-10-10T05:35:50.052Z,0.00
2022-10-10T05:36:50.078Z,0.00
2022-10-10T05:37:50.115Z,0.00
2022-10-10T05:38:50.143Z,5.63
2022-10-10T05:39:54.495Z,5.63
2022-10-10T05:40:50.202Z,5.63
2022-10-10T05:41:50.236Z,5.63
2022-10-10T05:42:50.471Z,5.63
2022-10-10T05:43:50.296Z,5.63
2022-10-10T05:44:50.326Z,5.63
2022-10-10T05:45:50.359Z,5.63
2022-10-10T05:46:50.388Z,5.63
2022-10-10T05:47:50.424Z,5.63
2022-10-10T05:48:50.450Z,5.63
2022-10-10T05:49:50.483Z,5.63
2022-10-10T05:50:50.512Z,5.63
2022-10-10T05:51:50.543Z,5.63
2022-10-10T05:52:50.798Z,5.63
2022-10-10T05:53:50.606Z,5.63
2022-10-10T05:54:50.636Z,5.63
2022-10-10T05:55:50.667Z,5.63
2022-10-10T05:56:50.697Z,11.25
2022-10-10T05:57:50.735Z,11.25
2022-10-10T05:58:50.758Z,11.25
2022-10-10T05:59:50.793Z,11.25
2022-10-10T06:00:50.823Z,11.25
2022-10-10T06:01:50.853Z,11.25
2022-10-10T06:02:51.283Z,11.25
2022-10-10T06:03:50.922Z,11.25
2022-10-10T06:04:50.946Z,11.25
2022-10-10T06:05:50.978Z,11.25
2022-10-10T06:06:51.007Z,11.25
2022-10-10T06:08:11.613Z,11.25
2022-10-10T06:08:51.072Z,11.25
2022-10-10T06:09:51.102Z,11.25
2022-10-10T06:10:51.132Z,11.25
2022-10-10T06:11:51.162Z,11.25
2022-10-10T06:12:51.539Z,11.25
2022-10-10T06:13:51.224Z,11.25
2022-10-10T06:14:51.263Z,11.25
2022-10-10T06:15:51.288Z,11.25
2022-10-10T06:16:51.319Z,11.25
2022-10-10T06:17:51.348Z,11.25
2022-10-10T06:18:51.377Z,11.25
2022-10-10T06:19:51.412Z,11.25
2022-10-10T06:20:51.439Z,11.25
2022-10-10T06:21:51.478Z,11.25
2022-10-10T06:22:51.757Z,11.25
2022-10-10T06:23:51.533Z,11.25
2022-10-10T06:24:53.127Z,11.25
2022-10-10T06:25:51.596Z,11.25
2022-10-10T06:26:51.624Z,11.25
2022-10-10T06:27:51.660Z,11.25
2022-10-10T06:28:51.686Z,11.25
2022-10-10T06:29:51.726Z,11.25
2022-10-10T06:30:51.752Z,11.25
2022-10-10T06:31:51.794Z,11.25
2022-10-10T06:32:56.467Z,16.88
2022-10-10T06:33:51.843Z,16.88
2022-10-10T06:34:51.874Z,16.88
2022-10-10T06:35:51.904Z,16.88
2022-10-10T06:36:51.938Z,16.88
2022-10-10T06:37:51.973Z,16.88
2022-10-10T06:38:51.996Z,16.88
2022-10-10T06:39:52.034Z,16.88
2022-10-10T06:40:52.059Z,16.88
2022-10-10T06:41:52.094Z,16.88
2022-10-10T06:42:52.556Z,16.88
2022-10-10T06:43:52.152Z,22.50
2022-10-10T06:44:52.182Z,22.50
2022-10-10T06:45:52.213Z,22.50
2022-10-10T06:46:52.250Z,22.50
2022-10-10T06:47:52.275Z,22.50
2022-10-10T06:48:52.306Z,22.50
2022-10-10T06:49:52.339Z,22.50
2022-10-10T06:50:52.370Z,22.50
2022-10-10T06:51:52.419Z,22.50
2022-10-10T06:52:52.819Z,22.50
2022-10-10T06:53:52.462Z,22.50
2022-10-10T06:54:52.492Z,22.50
2022-10-10T06:55:52.524Z,22.50
2022-10-10T06:56:52.561Z,22.50
2022-10-10T06:57:52.586Z,22.50
2022-10-10T06:58:52.616Z,22.50
2022-10-10T06:59:52.649Z,22.50
2022-10-10T07:00:52.676Z,28.13
2022-10-10T07:01:52.760Z,28.13
2022-10-10T07:02:53.136Z,28.13
2022-10-10T07:03:52.792Z,28.13
2022-10-10T07:04:52.803Z,28.13
2022-10-10T07:05:52.836Z,28.13
2022-10-10T07:06:52.864Z,28.13
2022-10-10T07:07:52.896Z,28.13
2022-10-10T07:08:52.951Z,28.13
2022-10-10T07:09:52.960Z,28.13
2022-10-10T07:10:52.986Z,28.13
2022-10-10T07:11:53.032Z,28.13
2022-10-10T07:12:53.363Z,28.13
2022-10-10T07:13:53.081Z,28.13
2022-10-10T07:14:53.113Z,28.13
2022-10-10T07:15:53.143Z,28.13
2022-10-10T07:16:53.174Z,28.13
2022-10-10T07:17:54.429Z,28.13
2022-10-10T07:18:53.236Z,33.75
2022-10-10T07:19:53.266Z,33.75
2022-10-10T07:20:53.309Z,33.75
2022-10-10T07:21:53.330Z,33.75
2022-10-10T07:22:53.707Z,33.75
2022-10-10T07:23:53.394Z,33.75
2022-10-10T07:24:53.424Z,33.75
2022-10-10T07:25:53.454Z,33.75
2022-10-10T07:26:59.611Z,39.38
2022-10-10T07:27:53.516Z,39.38
2022-10-10T07:28:53.546Z,39.38
2022-10-10T07:29:53.584Z,39.38
2022-10-10T07:30:53.607Z,39.38
2022-10-10T07:31:53.639Z,39.38
2022-10-10T07:32:53.960Z,39.38
2022-10-10T07:33:53.705Z,33.75
2022-10-10T07:34:53.734Z,33.75
2022-10-10T07:35:53.770Z,33.75
2022-10-10T07:36:53.794Z,33.75
2022-10-10T07:37:53.831Z,39.38
2022-10-10T07:38:53.855Z,39.38
2022-10-10T07:39:53.951Z,39.38
2022-10-10T07:40:53.918Z,39.38
2022-10-10T07:41:53.953Z,45.00
2022-10-10T07:42:54.199Z,45.00
2022-10-10T07:43:54.012Z,45.00
2022-10-10T07:44:54.042Z,45.00
2022-10-10T07:45:54.121Z,50.63
2022-10-10T07:46:54.108Z,50.63
2022-10-10T07:47:54.504Z,45.00
2022-10-10T07:48:54.168Z,45.00
2022-10-10T07:49:54.201Z,45.00
2022-10-10T07:50:54.229Z,45.00
2022-10-10T07:51:58.611Z,45.00
2022-10-10T07:52:54.295Z,45.00
2022-10-10T07:53:54.326Z,45.00
2022-10-10T07:54:54.355Z,45.00
2022-10-10T07:55:54.408Z,45.00
2022-10-10T07:56:54.425Z,45.00
2022-10-10T07:57:54.838Z,50.63
2022-10-10T07:58:54.481Z,50.63
2022-10-10T07:59:54.512Z,50.63
2022-10-10T08:00:54.544Z,45.00
2022-10-10T08:01:54.685Z,45.00
2022-10-10T08:02:54.607Z,39.38
2022-10-10T08:03:54.638Z,39.38
2022-10-10T08:04:54.671Z,39.38
2022-10-10T08:05:54.701Z,39.38
2022-10-10T08:06:54.732Z,39.38
2022-10-10T08:07:55.085Z,39.38
2022-10-10T08:08:54.795Z,39.38
2022-10-10T08:09:54.827Z,39.38
2022-10-10T08:10:54.855Z,39.38
2022-10-10T08:11:54.891Z,39.38
2022-10-10T08:12:54.920Z,39.38
2022-10-10T08:13:54.953Z,33.75
2022-10-10T08:14:54.984Z,33.75
2022-10-10T08:15:55.020Z,33.75
2022-10-10T08:16:55.046Z,33.75
2022-10-10T08:17:55.079Z,39.38
2022-10-10T08:18:55.117Z,33.75
2022-10-10T08:19:55.141Z,33.75
2022-10-10T08:20:55.172Z,33.75
2022-10-10T08:21:55.204Z,39.38
2022-10-10T08:22:55.250Z,45.00
2022-10-10T08:23:55.266Z,56.25
2022-10-10T08:24:55.298Z,56.25
2022-10-10T08:25:55.330Z,56.25
2022-10-10T08:26:55.361Z,56.25
2022-10-10T08:27:55.398Z,56.25
2022-10-10T08:28:55.435Z,56.25
2022-10-10T08:29:55.457Z,61.88
2022-10-10T08:30:55.486Z,61.88
2022-10-10T08:31:55.534Z,61.88
2022-10-10T08:32:55.552Z,61.88
2022-10-10T08:33:55.582Z,61.88
2022-10-10T08:34:55.614Z,61.88
2022-10-10T08:35:55.643Z,67.50
2022-10-10T08:36:55.676Z,67.50
2022-10-10T08:37:55.708Z,67.50
2022-10-10T08:38:55.738Z,73.13
2022-10-10T08:39:55.769Z,78.75
2022-10-10T08:40:55.802Z,84.38
2022-10-10T08:41:55.833Z,90.00
2022-10-10T08:42:56.250Z,95.63
2022-10-10T08:43:56.015Z,95.63
2022-10-10T08:44:55.928Z,101.25
2022-10-10T08:45:55.960Z,106.88
2022-10-10T08:46:55.992Z,106.88
2022-10-10T08:47:56.056Z,112.50
2022-10-10T08:48:56.058Z,118.13
2022-10-10T08:49:56.089Z,123.75
2022-10-10T08:50:56.119Z,135.00
2022-10-10T08:52:03.367Z,168.75
2022-10-10T08:53:49.317Z,894.38
2022-10-10T08:54:49.342Z,1080.00
2022-10-10T08:56:42.547Z,1220.63
2022-10-10T08:57:42.539Z,1175.63
2022-10-10T08:59:35.560Z,1170.00
2022-10-10T09:00:35.588Z,1192.50
2022-10-10T09:02:38.274Z,1175.63
2022-10-10T09:03:28.794Z,1215.00
2022-10-10T09:05:21.967Z,1186.88
2022-10-10T09:06:21.998Z,1209.38
2022-10-10T09:08:14.974Z,1276.88
2022-10-10T09:09:15.002Z,1164.38
2022-10-10T09:11:08.257Z,1136.25
2022-10-10T09:12:08.235Z,1209.38
2022-10-10T09:14:01.442Z,1164.38
2022-10-10T09:15:02.846Z,1192.50
2022-10-10T09:17:05.501Z,1170.00
2022-10-10T09:18:05.539Z,1158.75
2022-10-10T09:19:58.629Z,1130.63
2022-10-10T09:20:58.936Z,1035.00
2022-10-10T09:22:51.620Z,264.38
2022-10-10T09:23:51.639Z,146.25
2022-10-10T09:25:55.742Z,135.00
2022-10-10T09:26:55.735Z,129.38
2022-10-10T09:28:59.845Z,123.75
2022-10-10T09:29:59.866Z,129.38
2022-10-10T09:31:52.880Z,146.25
2022-10-10T09:32:52.881Z,146.25
2022-10-10T09:34:57.267Z,135.00
2022-10-10T09:35:57.263Z,140.63
2022-10-10T09:37:50.318Z,151.88
2022-10-10T09:38:50.311Z,157.50
2022-10-10T09:40:43.479Z,163.13
2022-10-10T09:41:43.509Z,168.75
2022-10-10T09:43:36.716Z,168.75
2022-10-10T09:44:36.710Z,168.75
2022-10-10T09:46:29.695Z,151.88
2022-10-10T09:47:29.723Z,163.13
2022-10-10T09:49:33.796Z,185.63
2022-10-10T09:50:33.822Z,185.63
2022-10-10T09:52:27.033Z,157.50
2022-10-10T09:53:27.024Z,163.13
2022-10-10T09:55:20.201Z,174.38
2022-10-10T09:56:20.229Z,180.00
2022-10-10T09:58:13.246Z,191.25
2022-10-10T09:59:13.241Z,202.50
2022-10-10T10:01:06.518Z,202.50
2022-10-10T10:02:06.470Z,196.88
2022-10-10T10:04:11.466Z,191.25
2022-10-10T10:04:59.669Z,180.00
2022-10-10T10:06:52.736Z,151.88
2022-10-10T10:07:52.687Z,135.00
2022-10-10T10:09:45.924Z,101.25
2022-10-10T10:10:45.924Z,106.88
2022-10-10T10:12:39.089Z,157.50
2022-10-10T10:13:39.119Z,236.25
2022-10-10T10:15:32.309Z,528.75
2022-10-10T10:16:32.336Z,832.50
2022-10-10T10:18:25.325Z,101.25
2022-10-10T10:19:25.359Z,112.50
2022-10-10T10:21:18.563Z,708.75
2022-10-10T10:22:21.333Z,2272.50
2022-10-10T10:24:11.764Z,2565.00
2022-10-10T10:25:11.790Z,1361.25
2022-10-10T10:27:05.000Z,1248.75
2022-10-10T10:28:05.071Z,1203.75
2022-10-10T10:29:57.993Z,922.50
2022-10-10T10:30:58.026Z,2148.75
2022-10-10T10:32:51.228Z,3155.63
2022-10-10T10:33:51.265Z,3234.38
2022-10-10T10:35:44.505Z,3526.88
2022-10-10T10:36:44.475Z,3532.50
2022-10-10T10:38:37.498Z,3358.13
2022-10-10T10:39:37.498Z,3397.50
2022-10-10T10:41:41.846Z,3195.00
2022-10-10T10:42:41.862Z,1698.75
2022-10-10T10:44:35.072Z,596.25
2022-10-10T10:45:35.069Z,810.00
2022-10-10T10:47:28.300Z,1170.00
2022-10-10T10:48:28.283Z,2520.00
2022-10-10T10:50:21.466Z,2475.00
2022-10-10T10:51:21.602Z,2812.50
2022-10-10T10:53:14.497Z,2812.50
2022-10-10T10:54:14.538Z,2475.00
2022-10-10T10:56:07.745Z,2615.63
2022-10-10T10:57:11.121Z,2548.13
2022-10-10T10:59:38.580Z,1299.38
2022-10-10T11:00:26.214Z,1760.63
2022-10-10T11:02:05.830Z,241.88
2022-10-10T11:03:20.915Z,241.88
2022-10-10T11:05:21.896Z,236.25
2022-10-10T11:05:58.242Z,236.25
2022-10-10T11:07:51.529Z,1164.38
2022-10-10T11:08:51.476Z,2795.63
2022-10-10T11:10:44.648Z,2711.25
2022-10-10T11:11:44.644Z,3414.38
2022-10-10T11:13:37.847Z,3375.00
2022-10-10T11:14:37.881Z,3330.00
2022-10-10T11:16:47.376Z,3346.88
2022-10-10T11:17:36.253Z,3341.25
2022-10-10T11:19:35.071Z,3465.00
2022-10-10T11:20:35.110Z,3448.13
2022-10-10T11:22:28.303Z,3363.75
2022-10-10T11:23:28.359Z,3386.25
2022-10-10T11:25:21.530Z,3436.88
2022-10-10T11:26:21.569Z,3577.50
2022-10-10T11:28:14.801Z,3470.63
2022-10-10T11:29:14.803Z,3369.38
2022-10-10T11:31:07.998Z,3341.25
2022-10-10T11:32:08.097Z,3363.75
2022-10-10T11:34:01.243Z,3414.38
2022-10-10T11:35:01.283Z,3369.38
2022-10-10T11:36:54.479Z,3408.75
2022-10-10T11:37:54.519Z,3375.00
2022-10-10T11:39:47.748Z,3335.63
2022-10-10T11:40:47.754Z,3420.00
2022-10-10T11:42:51.852Z,3369.38
2022-10-10T11:43:51.891Z,3183.75
2022-10-10T11:45:44.906Z,3251.25
2022-10-10T11:46:44.951Z,3285.00
2022-10-10T11:48:38.145Z,3341.25
2022-10-10T11:49:38.189Z,3206.25
2022-10-10T11:51:31.408Z,3324.38
2022-10-10T11:52:34.462Z,3346.88
2022-10-10T11:54:24.646Z,2463.75
2022-10-10T11:55:24.689Z,1389.38
2022-10-10T11:57:17.896Z,2115.00
2022-10-10T11:58:17.939Z,2486.25
2022-10-10T12:00:11.197Z,4230.00
2022-10-10T12:01:11.177Z,4252.50
2022-10-10T12:03:04.377Z,4331.25
2022-10-10T12:04:04.420Z,3920.63
2022-10-10T12:05:57.660Z,1710.00
2022-10-10T12:06:57.479Z,1496.25
2022-10-10T12:08:50.678Z,3431.25
2022-10-10T12:09:50.715Z,2295.00
2022-10-10T12:11:43.931Z,1912.50
2022-10-10T12:12:43.957Z,1738.13
2022-10-10T12:14:48.100Z,2401.88
2022-10-10T12:15:50.131Z,3633.75
2022-10-10T12:17:52.187Z,3217.50
2022-10-10T12:18:52.228Z,1828.13
2022-10-10T12:20:45.455Z,2126.25
2022-10-10T12:21:45.508Z,2716.88
2022-10-10T12:23:49.566Z,1918.13
2022-10-10T12:24:50.307Z,2885.63
2022-10-10T12:26:42.806Z,2475.00
2022-10-10T12:27:42.847Z,3043.13
2022-10-10T12:29:50.843Z,1040.63
2022-10-10T12:30:46.985Z,2846.25
2022-10-10T12:32:40.176Z,2446.88
2022-10-10T12:33:40.217Z,3015.00
2022-10-10T12:35:33.449Z,3166.88
2022-10-10T12:36:33.455Z,3150.00
2022-10-10T12:38:26.650Z,2559.38
2022-10-10T12:39:26.690Z,3082.50
2022-10-10T12:41:30.799Z,3071.25
2022-10-10T12:42:30.842Z,2981.25
2022-10-10T12:44:24.075Z,2953.13
2022-10-10T12:45:24.085Z,2908.13
2022-10-10T12:47:17.313Z,2947.50
2022-10-10T12:48:17.325Z,2953.13
2022-10-10T12:50:10.516Z,2660.63
2022-10-10T12:51:10.557Z,2570.63
2022-10-10T12:53:03.760Z,2716.88
2022-10-10T12:54:03.804Z,2660.63
2022-10-10T12:55:56.816Z,2475.00
2022-10-10T12:56:56.862Z,2655.00
2022-10-10T12:58:50.090Z,2598.75
2022-10-10T12:59:50.098Z,2581.88
2022-10-10T13:01:43.326Z,2649.38
2022-10-10T13:02:43.340Z,2728.13
2022-10-10T13:04:47.484Z,2570.63
2022-10-10T13:05:47.488Z,2503.13
2022-10-10T13:07:40.685Z,489.38
2022-10-10T13:08:40.724Z,1198.13
2022-10-10T13:10:33.963Z,354.38
2022-10-10T13:11:33.962Z,230.63
2022-10-10T13:13:38.070Z,213.75
2022-10-10T13:14:38.111Z,326.25
2022-10-10T13:16:33.960Z,506.25
2022-10-10T13:17:31.173Z,1063.13
2022-10-10T13:19:24.378Z,1552.50
2022-10-10T13:20:24.403Z,427.50
2022-10-10T13:22:17.455Z,371.25
2022-10-10T13:23:17.459Z,286.88
2022-10-10T13:25:10.679Z,1040.63
2022-10-10T13:26:10.717Z,438.75
2022-10-10T13:28:03.915Z,236.25
2022-10-10T13:29:03.948Z,270.00
2022-10-10T13:31:08.072Z,196.88
2022-10-10T13:32:08.073Z,202.50
2022-10-10T13:34:12.227Z,478.13
2022-10-10T13:35:12.230Z,309.38
2022-10-10T13:37:05.454Z,337.50
2022-10-10T13:38:05.458Z,225.00
2022-10-10T13:39:58.640Z,185.63
2022-10-10T13:40:58.729Z,225.00
2022-10-10T13:42:51.865Z,174.38
2022-10-10T13:43:51.900Z,196.88
2022-10-10T13:45:44.904Z,410.63
2022-10-10T13:46:44.944Z,1080.00
2022-10-10T13:48:49.061Z,1816.88
2022-10-10T13:49:49.093Z,1445.63
2022-10-10T13:51:42.318Z,1355.63
2022-10-10T13:52:42.316Z,1839.38
2022-10-10T13:54:35.497Z,1794.38
2022-10-10T13:55:35.536Z,843.75
2022-10-10T13:57:28.721Z,1372.50
2022-10-10T13:58:28.755Z,635.63
2022-10-10T14:00:21.947Z,1636.88
2022-10-10T14:01:22.027Z,1271.25
2022-10-10T14:03:15.177Z,933.75
2022-10-10T14:04:15.214Z,376.88
2022-10-10T14:06:08.233Z,157.50
2022-10-10T14:07:08.265Z,151.88
2022-10-10T14:09:01.387Z,157.50
2022-10-10T14:10:01.390Z,140.63
2022-10-10T14:11:54.581Z,135.00
2022-10-10T14:12:54.608Z,101.25
2022-10-10T14:14:47.823Z,135.00
2022-10-10T14:15:47.824Z,135.00
2022-10-10T14:17:41.008Z,129.38
2022-10-10T14:18:41.044Z,118.13
2022-10-10T14:20:45.142Z,112.50
2022-10-10T14:21:45.175Z,106.88
2022-10-10T14:23:38.369Z,73.13
2022-10-10T14:24:38.406Z,95.63
2022-10-10T14:26:31.449Z,90.00
2022-10-10T14:27:36.255Z,90.00
2022-10-10T14:29:24.616Z,90.00
2022-10-10T14:30:24.644Z,90.00
2022-10-10T14:32:28.727Z,84.38
2022-10-10T14:33:28.759Z,84.38
2022-10-10T14:35:21.964Z,78.75
2022-10-10T14:36:21.964Z,78.75
2022-10-10T14:38:14.982Z,78.75
2022-10-10T14:39:15.015Z,78.75
2022-10-10T14:41:19.135Z,73.13
2022-10-10T14:42:19.138Z,73.13
2022-10-10T14:44:23.222Z,67.50
2022-10-10T14:45:23.249Z,67.50
2022-10-10T14:47:16.469Z,61.88
2022-10-10T14:48:16.493Z,61.88
2022-10-10T14:50:20.583Z,56.25
2022-10-10T14:51:34.312Z,56.25
2022-10-10T14:53:13.686Z,56.25
2022-10-10T14:54:14.333Z,50.63
2022-10-10T14:56:06.633Z,56.25
2022-10-10T14:57:10.029Z,50.63
2022-10-10T14:58:59.852Z,50.63
2022-10-10T14:59:59.891Z,50.63
2022-10-10T15:01:53.117Z,50.63
2022-10-10T15:02:53.187Z,45.00
2022-10-10T15:04:46.271Z,45.00
2022-10-10T15:05:46.305Z,45.00
2022-10-10T15:07:50.387Z,39.38
2022-10-10T15:08:50.424Z,39.38
2022-10-10T15:10:43.593Z,39.38
2022-10-10T15:11:43.631Z,39.38
2022-10-10T15:13:36.836Z,33.75
2022-10-10T15:14:36.829Z,33.75
2022-10-10T15:16:29.831Z,33.75
2022-10-10T15:17:29.861Z,33.75
2022-10-10T15:19:34.007Z,33.75
2022-10-10T15:20:33.971Z,28.13
2022-10-10T15:22:27.227Z,28.13
2022-10-10T15:23:27.221Z,28.13
2022-10-10T15:25:33.957Z,28.13
2022-10-10T15:26:31.350Z,28.13
2022-10-10T15:28:24.581Z,28.13
2022-10-10T15:29:24.562Z,22.50
2022-10-10T15:31:17.739Z,22.50
2022-10-10T15:32:17.771Z,22.50
2022-10-10T15:34:10.955Z,22.50
2022-10-10T15:35:11.002Z,22.50
2022-10-10T15:37:15.068Z,22.50
2022-10-10T15:38:15.098Z,22.50
2022-10-10T15:40:19.167Z,16.88
2022-10-10T15:41:19.200Z,16.88
2022-10-10T15:43:12.370Z,16.88
2022-10-10T15:44:12.400Z,16.88
2022-10-10T15:46:05.379Z,11.25
2022-10-10T15:47:05.409Z,11.25
2022-10-10T15:48:58.586Z,11.25
2022-10-10T15:49:58.617Z,11.25
2022-10-10T15:52:02.692Z,11.25
2022-10-10T15:53:02.722Z,5.63
2022-10-10T15:54:55.941Z,5.63
2022-10-10T15:55:55.926Z,5.63
2022-10-10T15:58:00.054Z,5.63
2022-10-10T15:59:00.038Z,5.63
2022-10-10T16:00:53.273Z,5.63